John F Kennedy International Airport
KJFK : rendu visible

Aérodrome :











RETROUVEZ-NOUS SUR...

 
LOGIN :

S'inscrire | Disclaimer

   EN    FR    IT 

 









Légende :    VFR   VFR Marginal   IFR   IFR Intensif   IFR Très Intensif
Visi : 
Plafond : 
>= 8 km
>= 3000ft
5 à 8 km
1000 à 3000 ft
1500m à 5 km
500 à 1000 ft
800 à 1500m
200 à 500 ft
< 800m
< 200 ft
Symboles :   Orages  Brouillard  Fortes neiges  Fortes précipitations  Vent > 20 kt







- Altitude de l'aérodrome : 13 ft
- Code IATA : JFK


KJFK - John F Kennedy International

DERNIER METAR :
  • 201905Z 16008KT 3SM BR FEW002 OVC006 23/23 A2953 RMK AO2 SFC VIS 6 T02330228

METARs EXPIRÉS :
  • 201851Z 16009KT 1SM R04R/P6000FT BR SCT000 OVC006 23/23 A2954 RMK AO2 TWR VIS 3 SLP001 BR SCT000 T02330228
  • 201751Z 16009KT 3SM BR FEW002 BKN005 BKN055 BKN250 24/23 A2956 RMK AO2 SFC VIS 4 SLP010 VIS SE-SW 1 1/2 60000 T02440233 10244 20200 58022
  • 201713Z 17009KT 3SM BR SCT003 BKN007 BKN055 BKN250 24/23 A2958 RMK AO2 SFC VIS 6 T02390228
  • 201651Z 18009KT 3/4SM R04R/P6000FT BR BKN004 BKN012 BKN055 OVC250 23/22 A2959 RMK AO2 SFC VIS 6 SLP020 CIG 003V005 BKN004 V SCT T02280222
  • 201637Z 16009KT 2 1/2SM BR BKN004 BKN018 OVC250 23/23 A2960 RMK AO2 SFC VIS 5 BKN004 V SCT T02330228

TAF KJFK
Valide du 20 à 19h jusqu'au 22 à 00h UTC


201842Z 2019/2124 17010KT 4SM BR BKN012
TEMPO 2019/2021 BKN005
FM202100 18010KT 5SM SHRA SCT015 BKN030
TEMPO 2021/2024 2SM TSRA BKN015CB
FM210000 22007KT 5SM -SHRA VCTS SCT015 BKN040CB
FM210400 23005KT P6SM VCTS BKN040CB
FM210700 25006KT 5SM -SHRA BKN040
FM211000 29008KT 5SM -SHRA BKN040
FM211500 32014G24KT P6SM SCT120
FIR KZNY / Amérique du Nord



MET'MAP, la Météo Aéronautique d'un coup d'oeil ! - Copyright ORBIFLY Décembre 2007 - Disclaimer

ORBIFLY MET'MAP TEAM :

Programmation & Développement : Alexandra Zaïnal
Conception & Développement : Baudouin d'Aumeries
Co-Programmation & Développement : Marc-Olivier Méhu
Soutien technique & logistique : Manuel Goepfert

Contact : metmap@orbifly.com




SOURCES & CREDITS :

   NOAA       Earth
Advisory